KALW/ALW METAR and TAF weather

Enter ICAO airport designator
Station Type Date Time Source
KALW METAR 2021/03/08 11:53 UTC NOAA

KALW 081153Z AUTO 18005KT 10SM FEW120 01/M02 A3005 RMK AO2 SLP183 T00111022 10044 20000 56020


Station Type Date Time Source
KALW Decoded METAR 2021/03/08 11:53 UTC NOAA

WALLA WALLA REGIONAL AIRPORT, WA, United States (KALW) 46-06N 118-17W 363M
Mar 08, 2021 - 06:53 AM EST / 2021.03.08 1153 UTC
Wind: from the S (180 degrees) at 6 MPH (5 KT):0
Visibility: 10 mile(s):0
Sky conditions: mostly clear
Temperature: 34.0 F (1.1 C)
Windchill: 28 F (-2 C):1
Dew Point: 28.0 F (-2.2 C)
Relative Humidity: 78%
Pressure (altimeter): 30.05 in. Hg (1017 hPa)
Pressure tendency: 0.06 inches (2.0 hPa) lower than three hours ago
ob: KALW 081153Z AUTO 18005KT 10SM FEW120 01/M02 A3005 RMK AO2 SLP183 T00111022 10044 20000 56020
cycle: 12

Station Type Date Time Source
KALW TAF 2021/03/08 12:22 UTC NOAA

TAF KALW 081120Z 0812/0912 11005KT P6SM SCT090 BKN120
FM081800 VRB06KT P6SM VCSH SCT070 BKN090
FM082000 32006KT 6SM -RA SCT025 OVC050
TEMPO 0821/0901 5SM -RA BKN025
FM090200 16006KT P6SM VCSH OVC040 PROB30 0908/0912 5SM -RASN OVC020

Example: see airport list